createdAt,value
2022-11-05T00:00:18.360Z,5.30
2022-11-05T00:01:18.588Z,5.33
2022-11-05T00:02:18.684Z,5.27
2022-11-05T00:03:18.863Z,5.24
2022-11-05T00:04:18.991Z,5.24
2022-11-05T00:05:19.154Z,5.22
2022-11-05T00:06:19.275Z,5.23
2022-11-05T00:07:19.431Z,5.19
2022-11-05T00:08:19.562Z,5.20
2022-11-05T00:09:19.702Z,5.20
2022-11-05T00:10:19.940Z,5.19
2022-11-05T00:11:20.045Z,5.23
2022-11-05T00:12:20.092Z,5.29
2022-11-05T00:13:20.226Z,5.29
2022-11-05T00:14:20.410Z,5.24
2022-11-05T00:15:20.622Z,5.19
2022-11-05T00:16:20.735Z,5.14
2022-11-05T00:17:20.882Z,5.11
2022-11-05T00:18:21.028Z,5.12
2022-11-05T00:19:21.183Z,5.15
2022-11-05T00:20:21.328Z,5.17
2022-11-05T00:21:21.505Z,5.17
2022-11-05T00:22:21.672Z,5.15
2022-11-05T00:23:21.847Z,5.09
2022-11-05T00:24:24.438Z,5.06
2022-11-05T00:25:22.125Z,5.04
2022-11-05T00:26:22.970Z,5.04
2022-11-05T00:27:22.416Z,5.01
2022-11-05T00:28:23.249Z,4.96
2022-11-05T00:29:22.750Z,4.90
2022-11-05T00:30:23.618Z,4.83
2022-11-05T00:31:23.038Z,4.80
2022-11-05T00:32:23.899Z,4.79
2022-11-05T00:33:24.091Z,4.75
2022-11-05T00:34:23.459Z,4.80
2022-11-05T00:35:23.629Z,4.80
2022-11-05T00:36:23.818Z,4.84
2022-11-05T00:37:24.491Z,4.87
2022-11-05T00:38:24.451Z,4.88
2022-11-05T00:39:24.958Z,4.87
2022-11-05T00:40:25.837Z,4.86
2022-11-05T00:41:24.620Z,4.80
2022-11-05T00:42:24.723Z,4.75
2022-11-05T00:43:24.877Z,4.68
2022-11-05T00:44:24.999Z,4.61
2022-11-05T00:45:25.128Z,4.53
2022-11-05T00:46:25.268Z,4.46
2022-11-05T00:47:25.435Z,4.51
2022-11-05T00:48:25.606Z,4.51
2022-11-05T00:49:25.759Z,4.50
2022-11-05T00:50:25.948Z,4.51
2022-11-05T00:51:26.196Z,4.51
2022-11-05T00:52:26.231Z,4.57
2022-11-05T00:53:26.356Z,4.64
2022-11-05T00:54:26.492Z,4.69
2022-11-05T00:55:26.616Z,4.80
2022-11-05T00:56:26.757Z,4.84
2022-11-05T00:57:26.917Z,4.88
2022-11-05T00:58:27.069Z,4.88
2022-11-05T00:59:27.195Z,4.86
2022-11-05T01:00:27.374Z,4.83
2022-11-05T01:01:27.549Z,4.75
2022-11-05T01:02:27.700Z,4.68
2022-11-05T01:03:27.738Z,4.64
2022-11-05T01:04:27.846Z,4.59
2022-11-05T01:05:28.704Z,4.54
2022-11-05T01:06:28.099Z,4.53
2022-11-05T01:07:28.239Z,4.53
2022-11-05T01:08:28.403Z,4.54
2022-11-05T01:09:28.556Z,4.53
2022-11-05T01:10:28.718Z,4.54
2022-11-05T01:11:28.865Z,4.59
2022-11-05T01:12:28.934Z,4.59
2022-11-05T01:13:29.096Z,4.59
2022-11-05T01:14:29.219Z,4.57
2022-11-05T01:15:29.402Z,4.56
2022-11-05T01:16:29.525Z,4.50
2022-11-05T01:17:29.644Z,4.44
2022-11-05T01:18:29.884Z,4.46
2022-11-05T01:19:29.933Z,4.46
2022-11-05T01:20:30.130Z,4.44
2022-11-05T01:21:30.271Z,4.39
2022-11-05T01:22:30.420Z,4.34
2022-11-05T01:23:30.601Z,4.29
2022-11-05T01:24:30.733Z,4.21
2022-11-05T01:25:30.863Z,4.16
2022-11-05T01:26:30.980Z,4.16
2022-11-05T01:27:31.114Z,4.24
2022-11-05T01:28:31.336Z,4.26
2022-11-05T01:29:31.352Z,4.34
2022-11-05T01:30:31.501Z,4.42
2022-11-05T01:31:31.675Z,4.44
2022-11-05T01:32:31.778Z,4.47
2022-11-05T01:33:31.944Z,4.44
2022-11-05T01:34:32.109Z,4.38
2022-11-05T01:35:32.243Z,4.35
2022-11-05T01:36:32.371Z,4.32
2022-11-05T01:37:32.502Z,4.28
2022-11-05T01:38:32.779Z,4.29
2022-11-05T01:39:32.811Z,4.26
2022-11-05T01:40:33.971Z,4.21
2022-11-05T01:41:33.125Z,4.20
2022-11-05T01:42:33.170Z,4.14
2022-11-05T01:43:33.290Z,4.11
2022-11-05T01:44:33.471Z,4.10
2022-11-05T01:45:33.718Z,4.11
2022-11-05T01:46:33.769Z,4.14
2022-11-05T01:47:33.922Z,4.14
2022-11-05T01:48:33.998Z,4.14
2022-11-05T01:49:34.222Z,4.16
2022-11-05T01:50:34.229Z,4.24
2022-11-05T01:51:34.347Z,4.28
2022-11-05T01:52:34.461Z,4.28
2022-11-05T01:53:34.630Z,4.29
2022-11-05T01:54:34.809Z,4.42
2022-11-05T01:55:34.856Z,4.44
2022-11-05T01:56:34.967Z,4.43
2022-11-05T01:57:35.089Z,4.43
2022-11-05T01:58:35.210Z,4.43
2022-11-05T01:59:35.329Z,4.43
2022-11-05T02:00:35.567Z,4.38
2022-11-05T02:01:35.811Z,4.38
2022-11-05T02:02:35.871Z,4.36
2022-11-05T02:03:35.949Z,4.35
2022-11-05T02:04:36.056Z,4.34
2022-11-05T02:05:36.246Z,4.28
2022-11-05T02:06:36.399Z,4.21
2022-11-05T02:07:36.526Z,4.20
2022-11-05T02:08:36.666Z,4.18
2022-11-05T02:09:36.830Z,4.16
2022-11-05T02:10:36.976Z,4.13
2022-11-05T02:11:37.095Z,4.11
2022-11-05T02:12:37.226Z,4.17
2022-11-05T02:13:37.355Z,4.26
2022-11-05T02:14:37.478Z,4.32
2022-11-05T02:15:37.616Z,4.39
2022-11-05T02:16:37.764Z,4.47
2022-11-05T02:17:37.874Z,4.44
2022-11-05T02:18:37.994Z,4.43
2022-11-05T02:19:38.118Z,4.44
2022-11-05T02:20:38.255Z,4.49
2022-11-05T02:21:38.414Z,4.46
2022-11-05T02:22:38.575Z,4.43
2022-11-05T02:23:38.700Z,4.38
2022-11-05T02:24:38.812Z,4.35
2022-11-05T02:25:38.942Z,4.39
2022-11-05T02:26:39.087Z,4.38
2022-11-05T02:27:39.194Z,4.32
2022-11-05T02:28:39.304Z,4.29
2022-11-05T02:29:39.423Z,4.24
2022-11-05T02:30:39.540Z,4.17
2022-11-05T02:31:39.674Z,4.17
2022-11-05T02:32:39.841Z,4.13
2022-11-05T02:33:39.991Z,4.10
2022-11-05T02:34:40.091Z,4.04
2022-11-05T02:35:40.218Z,4.07
2022-11-05T02:36:40.403Z,4.06
2022-11-05T02:37:40.488Z,4.00
2022-11-05T02:38:40.599Z,3.98
2022-11-05T02:39:40.733Z,3.96
2022-11-05T02:40:40.841Z,4.02
2022-11-05T02:41:40.979Z,4.02
2022-11-05T02:42:41.059Z,4.08
2022-11-05T02:43:41.197Z,4.10
2022-11-05T02:44:41.362Z,4.06
2022-11-05T02:45:41.509Z,4.07
2022-11-05T02:46:41.721Z,4.06
2022-11-05T02:47:41.810Z,4.07
2022-11-05T02:48:41.930Z,4.04
2022-11-05T02:49:42.042Z,4.11
2022-11-05T02:50:42.157Z,4.17
2022-11-05T02:51:42.313Z,4.17
2022-11-05T02:52:42.458Z,4.14
2022-11-05T02:53:42.598Z,4.08
2022-11-05T02:54:42.719Z,4.04
2022-11-05T02:55:42.851Z,4.02
2022-11-05T02:56:42.971Z,3.98
2022-11-05T02:57:43.090Z,3.93
2022-11-05T02:58:43.215Z,3.88
2022-11-05T02:59:43.327Z,3.82
2022-11-05T03:00:43.489Z,3.80
2022-11-05T03:01:43.786Z,3.71
2022-11-05T03:02:43.923Z,3.70
2022-11-05T03:03:43.820Z,3.68
2022-11-05T03:04:43.971Z,3.70
2022-11-05T03:05:44.126Z,3.68
2022-11-05T03:06:44.272Z,3.68
2022-11-05T03:07:44.429Z,3.63
2022-11-05T03:08:44.596Z,3.60
2022-11-05T03:09:44.715Z,3.63
2022-11-05T03:10:44.827Z,3.63
2022-11-05T03:11:44.969Z,3.63
2022-11-05T03:12:45.147Z,3.62
2022-11-05T03:13:45.264Z,3.59
2022-11-05T03:14:45.375Z,3.60
2022-11-05T03:15:45.498Z,3.53
2022-11-05T03:16:45.621Z,3.50
2022-11-05T03:17:45.735Z,3.45
2022-11-05T03:18:45.875Z,3.42
2022-11-05T03:19:46.032Z,3.44
2022-11-05T03:20:46.143Z,3.41
2022-11-05T03:21:46.265Z,3.41
2022-11-05T03:22:46.388Z,3.37
2022-11-05T03:23:46.496Z,3.34
2022-11-05T03:24:46.632Z,3.30
2022-11-05T03:25:46.807Z,3.28
2022-11-05T03:26:47.037Z,3.26
2022-11-05T03:27:47.073Z,3.25
2022-11-05T03:28:47.193Z,3.22
2022-11-05T03:29:47.327Z,3.25
2022-11-05T03:30:47.454Z,3.25
2022-11-05T03:31:47.592Z,3.23
2022-11-05T03:32:47.713Z,3.23
2022-11-05T03:33:47.860Z,3.23
2022-11-05T03:34:48.012Z,3.26
2022-11-05T03:35:48.132Z,3.25
2022-11-05T03:36:48.293Z,3.23
2022-11-05T03:37:48.418Z,3.26
2022-11-05T03:38:48.583Z,3.28
2022-11-05T03:39:48.782Z,3.26
2022-11-05T03:40:48.822Z,3.22
2022-11-05T03:41:48.976Z,3.22
2022-11-05T03:42:49.095Z,3.22
2022-11-05T03:43:49.246Z,3.20
2022-11-05T03:44:49.377Z,3.23
2022-11-05T03:45:49.492Z,3.20
2022-11-05T03:46:49.628Z,3.15
2022-11-05T03:47:49.730Z,3.10
2022-11-05T03:48:49.950Z,3.10
2022-11-05T03:49:50.011Z,3.05
2022-11-05T03:50:50.135Z,3.05
2022-11-05T03:51:50.260Z,3.05
2022-11-05T03:52:50.421Z,3.10
2022-11-05T03:53:50.559Z,3.13
2022-11-05T03:54:50.671Z,3.10
2022-11-05T03:55:50.800Z,3.10
2022-11-05T03:56:50.934Z,3.10
2022-11-05T03:57:51.092Z,3.10
2022-11-05T03:58:56.055Z,3.12
2022-11-05T03:59:52.361Z,3.19
2022-11-05T04:00:51.529Z,3.17
2022-11-05T04:01:51.770Z,3.16
2022-11-05T04:02:51.897Z,3.16
2022-11-05T04:03:51.970Z,3.16
2022-11-05T04:04:52.090Z,3.17
2022-11-05T04:05:52.201Z,3.16
2022-11-05T04:06:52.404Z,3.16
2022-11-05T04:07:52.561Z,3.12
2022-11-05T04:08:52.677Z,3.13
2022-11-05T04:09:52.869Z,3.12
2022-11-05T04:10:53.048Z,3.12
2022-11-05T04:11:53.038Z,3.12
2022-11-05T04:12:53.178Z,3.13
2022-11-05T04:13:53.317Z,3.12
2022-11-05T04:14:53.449Z,3.08
2022-11-05T04:15:53.599Z,3.08
2022-11-05T04:16:53.723Z,3.10
2022-11-05T04:17:53.846Z,3.12
2022-11-05T04:18:53.966Z,3.15
2022-11-05T04:19:54.081Z,3.16
2022-11-05T04:20:54.246Z,3.17
2022-11-05T04:21:54.318Z,3.19
2022-11-05T04:22:54.546Z,3.20
2022-11-05T04:23:54.621Z,3.20
2022-11-05T04:24:54.725Z,3.25
2022-11-05T04:25:54.847Z,3.26
2022-11-05T04:26:54.989Z,3.30
2022-11-05T04:27:55.096Z,3.30
2022-11-05T04:28:55.236Z,3.33
2022-11-05T04:29:55.347Z,3.31
2022-11-05T04:30:55.490Z,3.31
2022-11-05T04:31:55.594Z,3.28
2022-11-05T04:32:55.746Z,3.28
2022-11-05T04:33:55.913Z,3.28
2022-11-05T04:34:56.066Z,3.31
2022-11-05T04:35:56.162Z,3.28
2022-11-05T04:36:56.317Z,3.28
2022-11-05T04:37:56.456Z,3.26
2022-11-05T04:38:56.613Z,3.28
2022-11-05T04:39:56.724Z,3.28
2022-11-05T04:40:56.874Z,3.30
2022-11-05T04:41:57.037Z,3.30
2022-11-05T04:42:57.176Z,3.30
2022-11-05T04:43:57.376Z,3.30
2022-11-05T04:44:57.428Z,3.31
2022-11-05T04:45:57.546Z,3.28
2022-11-05T04:46:57.701Z,3.28
2022-11-05T04:47:57.820Z,3.26
2022-11-05T04:48:57.960Z,3.26
2022-11-05T04:49:58.111Z,3.28
2022-11-05T04:50:58.234Z,3.31
2022-11-05T04:51:58.352Z,3.30
2022-11-05T04:52:58.474Z,3.31
2022-11-05T04:53:58.882Z,3.33
2022-11-05T04:54:58.761Z,3.31
2022-11-05T04:55:58.984Z,3.30
2022-11-05T04:56:58.995Z,3.26
2022-11-05T04:57:59.115Z,3.23
2022-11-05T04:58:59.291Z,3.19
2022-11-05T04:59:59.341Z,3.16
2022-11-05T05:00:59.523Z,3.13
2022-11-05T05:01:59.648Z,3.13
2022-11-05T05:02:59.778Z,3.13
2022-11-05T05:03:59.941Z,3.16
2022-11-05T05:05:00.098Z,3.17
2022-11-05T05:06:03.685Z,3.19
2022-11-05T05:07:00.378Z,3.22
2022-11-05T05:08:00.490Z,3.25
2022-11-05T05:09:00.630Z,3.23
2022-11-05T05:10:00.771Z,3.22
2022-11-05T05:11:00.911Z,3.25
2022-11-05T05:12:01.046Z,3.28
2022-11-05T05:13:01.160Z,3.28
2022-11-05T05:14:01.279Z,3.30
2022-11-05T05:15:01.459Z,3.31
2022-11-05T05:16:01.606Z,3.35
2022-11-05T05:17:01.726Z,3.35
2022-11-05T05:18:01.881Z,3.34
2022-11-05T05:19:02.067Z,3.31
2022-11-05T05:20:02.198Z,3.34
2022-11-05T05:21:02.319Z,3.41
2022-11-05T05:22:09.859Z,3.42
2022-11-05T05:23:02.651Z,3.42
2022-11-05T05:24:02.800Z,3.44
2022-11-05T05:25:03.913Z,3.39
2022-11-05T05:26:03.113Z,3.31
2022-11-05T05:27:03.272Z,3.33
2022-11-05T05:28:03.411Z,3.34
2022-11-05T05:29:03.582Z,3.28
2022-11-05T05:30:03.644Z,3.23
2022-11-05T05:31:03.787Z,3.19
2022-11-05T05:32:03.933Z,3.15
2022-11-05T05:33:04.083Z,3.13
2022-11-05T05:34:04.231Z,3.13
2022-11-05T05:35:04.374Z,3.15
2022-11-05T05:36:08.517Z,3.12
2022-11-05T05:37:05.723Z,3.13
2022-11-05T05:38:04.782Z,3.16
2022-11-05T05:39:04.918Z,3.22
2022-11-05T05:40:04.997Z,3.23
2022-11-05T05:41:05.153Z,3.25
2022-11-05T05:42:05.270Z,3.23
2022-11-05T05:43:05.408Z,3.17
2022-11-05T05:44:05.569Z,3.10
2022-11-05T05:45:05.713Z,3.02
2022-11-05T05:46:06.838Z,2.95
2022-11-05T05:47:05.998Z,2.89
2022-11-05T05:48:06.146Z,2.83
2022-11-05T05:49:11.233Z,2.76
2022-11-05T05:50:07.427Z,2.74
2022-11-05T05:51:06.620Z,2.69
2022-11-05T05:52:06.705Z,2.68
2022-11-05T05:53:06.795Z,2.63
2022-11-05T05:54:06.921Z,2.63
2022-11-05T05:55:07.035Z,2.63
2022-11-05T05:56:07.184Z,2.62
2022-11-05T05:57:07.322Z,2.61
2022-11-05T05:58:07.434Z,2.58
2022-11-05T05:59:07.554Z,2.53
2022-11-05T06:00:07.676Z,2.48
2022-11-05T06:01:07.816Z,2.47
2022-11-05T06:02:08.026Z,2.44
2022-11-05T06:03:08.301Z,2.41
2022-11-05T06:04:08.319Z,2.38
2022-11-05T06:05:08.473Z,2.37
2022-11-05T06:06:08.618Z,2.36
2022-11-05T06:07:08.743Z,2.40
2022-11-05T06:08:08.886Z,2.38
2022-11-05T06:09:09.064Z,2.41
2022-11-05T06:10:09.125Z,2.44
2022-11-05T06:11:09.346Z,2.44
2022-11-05T06:12:09.413Z,2.43
2022-11-05T06:13:09.826Z,2.41
2022-11-05T06:14:09.671Z,2.41
2022-11-05T06:15:09.810Z,2.37
2022-11-05T06:16:09.892Z,2.27
2022-11-05T06:17:11.472Z,2.29
2022-11-05T06:18:10.201Z,2.26
2022-11-05T06:19:10.351Z,2.25
2022-11-05T06:20:10.483Z,2.26
2022-11-05T06:21:10.627Z,2.25
2022-11-05T06:22:10.752Z,2.25
2022-11-05T06:23:11.161Z,2.25
2022-11-05T06:24:11.043Z,2.26
2022-11-05T06:25:11.195Z,2.29
2022-11-05T06:26:11.307Z,2.33
2022-11-05T06:27:11.475Z,2.38
2022-11-05T06:28:11.623Z,2.45
2022-11-05T06:29:11.731Z,2.58
2022-11-05T06:30:11.898Z,2.63
2022-11-05T06:31:12.041Z,2.68
2022-11-05T06:32:12.189Z,2.71
2022-11-05T06:33:12.659Z,2.76
2022-11-05T06:34:12.451Z,2.77
2022-11-05T06:35:12.601Z,2.76
2022-11-05T06:36:12.687Z,2.79
2022-11-05T06:37:12.819Z,2.77
2022-11-05T06:38:12.969Z,2.76
2022-11-05T06:39:13.116Z,2.74
2022-11-05T06:40:13.200Z,2.71
2022-11-05T06:41:13.346Z,2.66
2022-11-05T06:42:20.556Z,2.63
2022-11-05T06:43:14.838Z,2.61
2022-11-05T06:44:13.754Z,2.59
2022-11-05T06:45:13.894Z,2.58
2022-11-05T06:46:13.998Z,2.51
2022-11-05T06:47:14.138Z,2.53
2022-11-05T06:48:14.354Z,2.53
2022-11-05T06:49:14.347Z,2.51
2022-11-05T06:50:14.487Z,2.51
2022-11-05T06:51:14.648Z,2.51
2022-11-05T06:52:14.743Z,2.55
2022-11-05T06:53:14.875Z,2.53
2022-11-05T06:54:15.061Z,2.55
2022-11-05T06:55:15.143Z,2.55
2022-11-05T06:56:15.276Z,2.55
2022-11-05T06:57:15.405Z,2.56
2022-11-05T06:58:15.525Z,2.56
2022-11-05T06:59:15.625Z,2.56
2022-11-05T07:00:15.804Z,2.61
2022-11-05T07:01:16.020Z,2.59
2022-11-05T07:02:16.154Z,2.61
2022-11-05T07:03:16.191Z,2.63
2022-11-05T07:04:16.333Z,2.61
2022-11-05T07:05:16.445Z,2.62
2022-11-05T07:06:16.636Z,2.62
2022-11-05T07:07:16.753Z,2.68
2022-11-05T07:08:16.946Z,2.68
2022-11-05T07:09:17.006Z,2.68
2022-11-05T07:10:17.148Z,2.71
2022-11-05T07:11:17.393Z,2.71
2022-11-05T07:12:17.446Z,2.73
2022-11-05T07:13:17.603Z,2.73
2022-11-05T07:14:17.737Z,2.73
2022-11-05T07:15:17.814Z,2.74
2022-11-05T07:16:17.983Z,2.76
2022-11-05T07:17:18.045Z,2.76
2022-11-05T07:18:18.762Z,2.79
2022-11-05T07:19:18.401Z,2.81
2022-11-05T07:20:18.475Z,2.86
2022-11-05T07:21:18.648Z,2.87
2022-11-05T07:22:18.814Z,2.94
2022-11-05T07:23:18.946Z,2.99
2022-11-05T07:24:19.084Z,3.07
2022-11-05T07:25:19.246Z,3.13
2022-11-05T07:26:19.451Z,3.20
2022-11-05T07:27:19.531Z,3.33
2022-11-05T07:28:19.806Z,3.41
2022-11-05T07:29:19.873Z,3.44
2022-11-05T07:30:20.034Z,3.49
2022-11-05T07:31:20.215Z,3.49
2022-11-05T07:32:20.365Z,3.57
2022-11-05T07:33:20.493Z,3.62
2022-11-05T07:34:20.647Z,3.64
2022-11-05T07:35:20.730Z,3.80
2022-11-05T07:36:20.860Z,3.88
2022-11-05T07:37:21.008Z,3.93
2022-11-05T07:38:21.169Z,3.93
2022-11-05T07:39:21.330Z,3.95
2022-11-05T07:40:21.472Z,3.92
2022-11-05T07:41:21.569Z,3.90
2022-11-05T07:42:21.748Z,3.86
2022-11-05T07:43:21.868Z,3.80
2022-11-05T07:44:22.064Z,3.80
2022-11-05T07:45:22.135Z,3.81
2022-11-05T07:46:22.300Z,3.82
2022-11-05T07:47:22.469Z,3.88
2022-11-05T07:48:22.687Z,3.92
2022-11-05T07:49:24.195Z,3.95
2022-11-05T07:50:22.923Z,4.00
2022-11-05T07:51:23.077Z,4.04
2022-11-05T07:52:23.237Z,4.14
2022-11-05T07:53:23.388Z,4.26
2022-11-05T07:54:23.557Z,4.34
2022-11-05T07:55:23.721Z,4.42
2022-11-05T07:56:23.872Z,4.50
2022-11-05T07:57:23.977Z,4.54
2022-11-05T07:58:24.158Z,4.65
2022-11-05T07:59:24.301Z,4.69
2022-11-05T08:00:24.464Z,4.74
2022-11-05T08:01:24.874Z,4.79
2022-11-05T08:02:25.038Z,4.80
2022-11-05T08:03:25.049Z,4.91
2022-11-05T08:04:25.137Z,5.01
2022-11-05T08:05:25.206Z,5.05
2022-11-05T08:06:25.398Z,5.05
2022-11-05T08:07:26.218Z,5.09
2022-11-05T08:08:25.625Z,5.12
2022-11-05T08:09:25.719Z,5.14
2022-11-05T08:10:25.956Z,5.15
2022-11-05T08:11:26.053Z,5.15
2022-11-05T08:12:26.152Z,5.19
2022-11-05T08:13:26.324Z,5.20
2022-11-05T08:14:26.466Z,5.26
2022-11-05T08:15:26.583Z,5.35
2022-11-05T08:16:26.723Z,5.38
2022-11-05T08:17:26.887Z,5.42
2022-11-05T08:18:27.051Z,5.52
2022-11-05T08:19:27.194Z,5.62
2022-11-05T08:20:27.343Z,5.67
2022-11-05T08:21:27.452Z,5.75
2022-11-05T08:22:27.622Z,5.78
2022-11-05T08:23:27.704Z,5.80
2022-11-05T08:24:27.876Z,5.85
2022-11-05T08:25:28.725Z,5.90
2022-11-05T08:26:28.165Z,5.99
2022-11-05T08:27:28.331Z,6.01
2022-11-05T08:28:28.533Z,6.05
2022-11-05T08:29:28.604Z,6.08
2022-11-05T08:30:28.766Z,6.19
2022-11-05T08:31:28.905Z,6.35
2022-11-05T08:32:29.021Z,6.43
2022-11-05T08:33:29.153Z,6.61
2022-11-05T08:34:29.299Z,6.76
2022-11-05T08:35:29.462Z,6.90
2022-11-05T08:36:29.622Z,6.99
2022-11-05T08:37:29.736Z,7.07
2022-11-05T08:38:29.833Z,7.11
2022-11-05T08:39:29.961Z,7.12
2022-11-05T08:40:30.120Z,7.16
2022-11-05T08:41:30.264Z,7.21
2022-11-05T08:42:30.410Z,7.21
2022-11-05T08:43:30.564Z,7.26
2022-11-05T08:44:30.729Z,7.34
2022-11-05T08:45:30.905Z,7.41
2022-11-05T08:46:31.042Z,7.48
2022-11-05T08:47:31.142Z,7.54
2022-11-05T08:48:31.281Z,7.67
2022-11-05T08:49:31.449Z,7.77
2022-11-05T08:50:31.603Z,7.76
2022-11-05T08:51:31.699Z,7.91
2022-11-05T08:52:31.838Z,8.12
2022-11-05T08:53:31.973Z,8.43
2022-11-05T08:54:32.091Z,8.46
2022-11-05T08:55:32.251Z,8.68
2022-11-05T08:56:32.411Z,8.96
2022-11-05T08:57:32.578Z,9.22
2022-11-05T08:58:32.729Z,9.22
2022-11-05T08:59:32.820Z,9.32
2022-11-05T09:00:32.967Z,9.23
2022-11-05T09:01:33.267Z,9.30
2022-11-05T09:02:33.276Z,9.56
2022-11-05T09:03:33.405Z,9.70
2022-11-05T09:04:33.490Z,9.73
2022-11-05T09:05:33.636Z,9.62
2022-11-05T09:06:33.886Z,9.63
2022-11-05T09:07:33.903Z,9.71
2022-11-05T09:08:34.017Z,9.89
2022-11-05T09:09:34.158Z,10.02
2022-11-05T09:10:34.271Z,10.22
2022-11-05T09:11:57.437Z,10.62
2022-11-05T09:12:35.537Z,10.73
2022-11-05T09:13:34.648Z,10.72
2022-11-05T09:14:34.758Z,10.90
2022-11-05T09:15:34.943Z,10.72
2022-11-05T09:16:35.030Z,10.62
2022-11-05T09:17:35.130Z,10.68
2022-11-05T09:18:35.239Z,10.55
2022-11-05T09:19:39.610Z,10.94
2022-11-05T09:20:35.513Z,11.38
2022-11-05T09:21:35.637Z,11.53
2022-11-05T09:22:39.234Z,11.45
2022-11-05T09:23:36.911Z,11.36
2022-11-05T09:24:35.998Z,11.20
2022-11-05T09:25:36.121Z,11.13
2022-11-05T09:26:36.260Z,10.88
2022-11-05T09:27:36.387Z,10.73
2022-11-05T09:28:36.494Z,10.52
2022-11-05T09:29:36.627Z,10.44
2022-11-05T09:30:36.780Z,10.47
2022-11-05T09:31:36.907Z,10.28
2022-11-05T09:32:37.968Z,10.14
2022-11-05T09:33:37.118Z,10.17
2022-11-05T09:34:37.244Z,10.10
2022-11-05T09:35:37.400Z,10.10
2022-11-05T09:36:37.506Z,10.28
2022-11-05T09:37:37.610Z,10.58
2022-11-05T09:38:37.750Z,10.69
2022-11-05T09:39:37.842Z,11.12
2022-11-05T09:40:37.981Z,11.39
2022-11-05T09:41:38.138Z,11.49
2022-11-05T09:42:38.241Z,11.48
2022-11-05T09:43:38.398Z,11.62
2022-11-05T09:44:38.509Z,11.62
2022-11-05T09:45:38.599Z,11.82
2022-11-05T09:46:38.706Z,12.29
2022-11-05T09:47:38.814Z,12.66
2022-11-05T09:48:39.004Z,12.70
2022-11-05T09:49:39.089Z,12.44
2022-11-05T09:50:39.235Z,12.80
2022-11-05T09:51:39.335Z,12.54
2022-11-05T09:52:39.506Z,12.67
2022-11-05T09:53:39.623Z,12.70
2022-11-05T09:54:40.440Z,12.91
2022-11-05T09:55:39.843Z,13.17
2022-11-05T09:56:39.976Z,13.73
2022-11-05T09:57:40.048Z,13.65
2022-11-05T09:58:40.271Z,13.14
2022-11-05T09:59:40.288Z,12.74
2022-11-05T10:00:40.467Z,12.88
2022-11-05T10:01:40.877Z,13.07
2022-11-05T10:02:40.679Z,13.24
2022-11-05T10:03:40.829Z,12.81
2022-11-05T10:04:40.918Z,12.49
2022-11-05T10:05:41.046Z,11.84
2022-11-05T10:06:41.168Z,11.48
2022-11-05T10:07:41.297Z,11.42
2022-11-05T10:08:42.919Z,11.39
2022-11-05T10:09:41.631Z,11.17
2022-11-05T10:10:41.676Z,11.21
2022-11-05T10:11:41.793Z,11.33
2022-11-05T10:12:41.918Z,11.30
2022-11-05T10:13:42.031Z,11.24
2022-11-05T10:14:42.190Z,11.21
2022-11-05T10:15:42.278Z,11.51
2022-11-05T10:16:42.417Z,11.53
2022-11-05T10:17:42.567Z,11.84
2022-11-05T10:18:42.725Z,11.98
2022-11-05T10:19:42.851Z,12.08
2022-11-05T10:20:42.938Z,12.13
2022-11-05T10:22:05.546Z,12.56
2022-11-05T10:22:49.284Z,12.89
2022-11-05T10:23:44.289Z,12.69
2022-11-05T10:24:43.459Z,12.58
2022-11-05T10:25:43.594Z,12.66
2022-11-05T10:26:43.679Z,12.33
2022-11-05T10:27:43.790Z,13.66
2022-11-05T10:28:43.937Z,13.93
2022-11-05T10:29:44.046Z,14.02
2022-11-05T10:30:44.200Z,13.68
2022-11-05T10:31:44.373Z,13.50
2022-11-05T10:32:44.447Z,14.09
2022-11-05T10:33:44.567Z,14.85
2022-11-05T10:34:44.764Z,14.95
2022-11-05T10:35:44.840Z,14.83
2022-11-05T10:36:44.999Z,15.84
2022-11-05T10:37:45.101Z,16.47
2022-11-05T10:38:45.251Z,15.98
2022-11-05T10:39:45.376Z,15.41
2022-11-05T10:40:45.475Z,15.40
2022-11-05T10:41:45.607Z,15.16
2022-11-05T10:42:45.723Z,15.59
2022-11-05T10:43:45.810Z,15.98
2022-11-05T10:44:45.950Z,16.13
2022-11-05T10:45:46.036Z,16.59
2022-11-05T10:46:46.180Z,16.67
2022-11-05T10:47:46.328Z,17.15
2022-11-05T10:48:46.492Z,16.91
2022-11-05T10:49:46.827Z,17.17
2022-11-05T10:50:46.729Z,17.42
2022-11-05T10:51:46.827Z,17.03
2022-11-05T10:52:46.930Z,16.42
2022-11-05T10:53:47.051Z,16.42
2022-11-05T10:54:47.158Z,16.45
2022-11-05T10:55:47.313Z,16.75
2022-11-05T10:56:47.459Z,17.35
2022-11-05T10:57:47.539Z,17.74
2022-11-05T10:58:47.722Z,18.44
2022-11-05T10:59:47.775Z,19.01
2022-11-05T11:00:48.014Z,18.94
2022-11-05T11:01:48.157Z,18.05
2022-11-05T11:02:48.151Z,17.03
2022-11-05T11:03:48.267Z,16.36
2022-11-05T11:04:48.400Z,15.74
2022-11-05T11:05:48.552Z,15.48
2022-11-05T11:06:48.699Z,15.31
2022-11-05T11:07:48.871Z,14.75
2022-11-05T11:08:48.961Z,14.86
2022-11-05T11:09:49.080Z,14.95
2022-11-05T11:10:49.201Z,15.23
2022-11-05T11:11:49.300Z,15.04
2022-11-05T11:12:49.472Z,15.22
2022-11-05T11:13:49.561Z,14.93
2022-11-05T11:14:49.667Z,14.78
2022-11-05T11:15:49.771Z,14.87
2022-11-05T11:16:49.913Z,15.07
2022-11-05T11:17:50.061Z,14.44
2022-11-05T11:18:50.171Z,14.56
2022-11-05T11:19:50.291Z,14.86
2022-11-05T11:20:50.396Z,15.05
2022-11-05T11:21:50.541Z,15.07
2022-11-05T11:22:50.652Z,15.03
2022-11-05T11:23:50.776Z,15.09
2022-11-05T11:24:50.889Z,14.85
2022-11-05T11:25:51.002Z,14.61
2022-11-05T11:26:51.081Z,14.54
2022-11-05T11:27:51.253Z,14.35
2022-11-05T11:28:51.353Z,14.17
2022-11-05T11:29:51.482Z,14.01
2022-11-05T11:30:51.561Z,13.91
2022-11-05T11:31:51.713Z,13.83
2022-11-05T11:32:51.874Z,14.05
2022-11-05T11:33:51.995Z,14.23
2022-11-05T11:34:52.101Z,14.26
2022-11-05T11:35:52.291Z,14.39
2022-11-05T11:36:52.394Z,14.19
2022-11-05T11:37:52.492Z,14.16
2022-11-05T11:38:53.334Z,14.16
2022-11-05T11:39:53.423Z,14.09
2022-11-05T11:40:53.450Z,14.16
2022-11-05T11:41:53.418Z,14.27
2022-11-05T11:42:53.485Z,14.69
2022-11-05T11:43:53.963Z,15.07
2022-11-05T11:44:53.384Z,14.75
2022-11-05T11:45:53.524Z,14.52
2022-11-05T11:46:53.643Z,14.35
2022-11-05T11:47:53.758Z,14.59
2022-11-05T11:48:54.412Z,14.57
2022-11-05T11:49:54.372Z,14.56
2022-11-05T11:50:54.875Z,14.48
2022-11-05T11:51:54.289Z,14.39
2022-11-05T11:52:54.363Z,14.21
2022-11-05T11:53:54.519Z,14.30
2022-11-05T11:54:54.632Z,14.31
2022-11-05T11:55:54.796Z,14.24
2022-11-05T11:56:54.871Z,14.21
2022-11-05T11:57:55.063Z,15.27
2022-11-05T11:58:55.168Z,15.89
2022-11-05T12:00:08.348Z,15.38
2022-11-05T12:00:56.463Z,15.07
2022-11-05T12:01:57.080Z,15.12
2022-11-05T12:03:00.474Z,15.09
2022-11-05T12:03:56.786Z,15.19
2022-11-05T12:04:55.889Z,15.05
2022-11-05T12:05:56.033Z,15.58
2022-11-05T12:06:56.167Z,15.92
2022-11-05T12:07:56.273Z,16.60
2022-11-05T12:09:02.057Z,17.32
2022-11-05T12:09:57.508Z,16.96
2022-11-05T12:10:56.647Z,16.06
2022-11-05T12:11:56.894Z,16.06
2022-11-05T12:12:56.893Z,15.70
2022-11-05T12:13:57.033Z,15.96
2022-11-05T12:14:57.155Z,15.77
2022-11-05T12:15:57.866Z,15.78
2022-11-05T12:16:57.393Z,15.80
2022-11-05T12:17:57.505Z,15.43
2022-11-05T12:18:57.628Z,15.56
2022-11-05T12:19:57.725Z,15.41
2022-11-05T12:20:58.540Z,15.09
2022-11-05T12:21:58.086Z,14.49
2022-11-05T12:22:58.090Z,14.66
2022-11-05T12:23:58.186Z,14.75
2022-11-05T12:24:58.303Z,14.79
2022-11-05T12:25:58.415Z,14.44
2022-11-05T12:26:58.523Z,13.93
2022-11-05T12:27:58.694Z,13.54
2022-11-05T12:29:17.946Z,13.36
2022-11-05T12:29:59.908Z,13.29
2022-11-05T12:30:59.025Z,13.32
2022-11-05T12:31:59.114Z,13.38
2022-11-05T12:32:59.323Z,13.39
2022-11-05T12:33:59.355Z,13.54
2022-11-05T12:34:59.455Z,13.65
2022-11-05T12:35:59.555Z,13.81
2022-11-05T12:36:59.666Z,13.80
2022-11-05T12:37:59.816Z,13.81
2022-11-05T12:38:59.981Z,13.98
2022-11-05T12:40:00.082Z,13.86
2022-11-05T12:41:00.236Z,13.71
2022-11-05T12:42:00.345Z,13.57
2022-11-05T12:43:00.423Z,13.48
2022-11-05T12:44:00.575Z,13.39
2022-11-05T12:45:00.697Z,13.36
2022-11-05T12:46:00.826Z,13.31
2022-11-05T12:47:00.923Z,13.17
2022-11-05T12:48:01.036Z,13.06
2022-11-05T12:49:01.178Z,13.01
2022-11-05T12:50:01.333Z,13.07
2022-11-05T12:51:01.484Z,13.10
2022-11-05T12:52:01.592Z,13.12
2022-11-05T12:53:01.766Z,13.14
2022-11-05T12:54:01.899Z,13.17
2022-11-05T12:55:01.982Z,13.21
2022-11-05T12:56:02.093Z,13.14
2022-11-05T12:57:02.212Z,13.04
2022-11-05T12:58:02.304Z,13.07
2022-11-05T12:59:02.446Z,13.03
2022-11-05T13:00:02.622Z,12.99
2022-11-05T13:01:02.786Z,12.81
2022-11-05T13:02:03.070Z,12.84
2022-11-05T13:03:02.986Z,12.92
2022-11-05T13:04:03.095Z,12.95
2022-11-05T13:05:03.209Z,12.84
2022-11-05T13:06:06.016Z,12.79
2022-11-05T13:07:06.649Z,12.69
2022-11-05T13:08:03.615Z,12.69
2022-11-05T13:09:04.704Z,12.63
2022-11-05T13:10:03.833Z,12.62
2022-11-05T13:11:03.947Z,12.67
2022-11-05T13:12:04.175Z,12.70